Time;durP1;ratioP1;P1;durP2;ratioP2;P2;SDS_P1;SDS_P2;PMS_P1;PMS_P2;Temp;Humidity;BMP_temperature;BMP_pressure;BME280_temperature;BME280_humidity;BME280_pressure;Samples;Min_cycle;Max_cycle;Signal;HPM_P1;HPM_P2
2021/09/27 00:01:07;;;;;;;33.58;20.17;;;;;;;14.18;95.75;101582.19;5093991;28;20024;-73
2021/09/27 00:03:33;;;;;;;32.60;20.05;;;;;;;14.18;96.26;101575.03;5094293;28;20032;-73
2021/09/27 00:05:58;;;;;;;33.75;19.85;;;;;;;14.22;96.72;101576.41;5094073;28;20040;-74
2021/09/27 00:08:25;;;;;;;31.33;19.20;;;;;;;14.21;96.97;101572.06;5075514;28;20028;-74
2021/09/27 00:10:57;;;;;;;32.13;20.70;;;;;;;14.18;96.38;101555.44;5093810;28;20111;-74
2021/09/27 00:13:25;;;;;;;30.90;18.17;;;;;;;14.13;96.24;101563.91;5093142;28;20075;-74
2021/09/27 00:15:53;;;;;;;29.00;20.50;;;;;;;14.07;95.90;101557.28;5093961;28;20023;-74
2021/09/27 00:18:19;;;;;;;31.45;20.70;;;;;;;14.03;95.89;101561.25;5093277;28;20070;-74
2021/09/27 00:20:49;;;;;;;36.58;21.77;;;;;;;14.00;95.81;101558.00;5093855;28;20032;-74
2021/09/27 00:23:16;;;;;;;30.77;18.60;;;;;;;13.97;96.20;101553.78;5093157;28;20573;-74
2021/09/27 00:25:42;;;;;;;30.52;19.80;;;;;;;13.93;96.15;101547.88;5093529;28;20270;-74
2021/09/27 00:28:08;;;;;;;32.78;20.83;;;;;;;13.91;96.36;101557.03;5093047;28;20035;-74
2021/09/27 00:30:34;;;;;;;33.00;21.65;;;;;;;13.86;96.41;101541.41;5093393;28;20111;-74
2021/09/27 00:32:59;;;;;;;28.95;19.13;;;;;;;13.84;96.16;101539.88;5093510;28;20036;-74
2021/09/27 00:35:29;;;;;;;31.52;20.10;;;;;;;13.80;96.20;101539.31;5092686;28;20032;-74
2021/09/27 00:37:55;;;;;;;37.38;21.77;;;;;;;13.79;96.44;101539.47;5093202;28;20093;-74
2021/09/27 00:40:27;;;;;;;31.98;20.25;;;;;;;13.74;96.64;101538.06;5092914;28;20114;-74
2021/09/27 00:42:53;;;;;;;33.63;20.88;;;;;;;13.70;96.61;101541.16;5093264;28;20032;-74
2021/09/27 00:45:23;;;;;;;32.28;21.10;;;;;;;13.64;96.45;101537.22;5092826;28;20040;-74
2021/09/27 00:47:48;;;;;;;39.70;23.10;;;;;;;13.63;96.16;101535.56;5093276;28;20032;-74
2021/09/27 00:50:16;;;;;;;37.10;23.33;;;;;;;13.62;96.43;101533.03;5092523;28;20035;-74
2021/09/27 00:52:43;;;;;;;37.15;20.75;;;;;;;13.61;96.67;101542.84;5093280;28;20107;-74
2021/09/27 00:55:13;;;;;;;36.22;21.20;;;;;;;13.59;97.03;101539.50;5092281;28;20534;-74
2021/09/27 00:57:39;;;;;;;36.08;22.08;;;;;;;13.58;96.72;101545.81;5093184;28;20047;-74
2021/09/27 01:00:07;;;;;;;33.45;21.48;;;;;;;13.56;96.44;101539.78;5092795;28;20039;-76
2021/09/27 01:02:33;;;;;;;33.92;21.42;;;;;;;13.54;96.24;101533.72;5093435;28;20035;-74
2021/09/27 01:04:58;;;;;;;34.65;22.00;;;;;;;13.53;96.54;101530.19;5093082;28;20032;-74
2021/09/27 01:07:44;;;;;;;42.10;23.00;;;;;;;13.49;96.81;101527.94;5092399;28;20029;-73
2021/09/27 01:10:37;;;;;;;40.60;24.40;;;;;;;13.48;96.92;101524.44;5092546;28;20111;-74
2021/09/27 01:13:22;;;;;;;40.92;25.50;;;;;;;13.48;96.95;101521.78;5092553;28;20052;-74
2021/09/27 01:16:06;;;;;;;51.42;29.10;;;;;;;13.48;97.58;101520.91;5092925;28;20028;-73
2021/09/27 01:18:57;;;;;;;49.03;26.90;;;;;;;13.47;98.09;101524.59;5092910;28;20034;-74
2021/09/27 01:21:40;;;;;;;44.85;25.23;;;;;;;13.42;97.79;101526.81;5092010;28;20078;-74
2021/09/27 01:24:35;;;;;;;38.30;24.77;;;;;;;13.38;97.96;101529.78;5092727;28;20036;-74
2021/09/27 01:27:34;;;;;;;41.70;25.00;;;;;;;13.34;98.31;101522.19;5092708;28;20104;-74
2021/09/27 01:30:12;;;;;;;47.58;23.98;;;;;;;13.33;97.99;101520.47;5092549;28;20492;-74
2021/09/27 01:32:46;;;;;;;54.38;27.60;;;;;;;13.34;98.96;101525.69;5092669;28;20048;-73
2021/09/27 01:35:16;;;;;;;46.17;26.50;;;;;;;13.29;98.89;101530.59;5091742;28;20020;-74
2021/09/27 01:38:08;;;;;;;61.92;29.95;;;;;;;13.26;99.04;101530.88;5092586;28;20472;-73
2021/09/27 01:41:06;;;;;;;62.97;32.15;;;;;;;13.25;99.05;101542.53;5092454;28;20358;-73
2021/09/27 01:43:52;;;;;;;54.55;28.33;;;;;;;13.22;99.45;101535.63;5071270;28;20070;-74
2021/09/27 01:46:59;;;;;;;59.47;30.13;;;;;;;13.21;99.71;101535.78;5092025;28;20107;-74
2021/09/27 01:49:33;;;;;;;49.35;26.30;;;;;;;13.19;99.44;101535.09;5092312;28;20034;-74
2021/09/27 01:52:16;;;;;;;55.70;29.40;;;;;;;13.18;99.20;101526.25;5092225;28;20031;-74
2021/09/27 01:54:48;;;;;;;56.25;27.60;;;;;;;13.21;99.71;101530.44;5092535;28;20028;-74
2021/09/27 01:57:29;;;;;;;70.95;33.15;;;;;;;13.26;99.83;101522.84;5091922;28;20039;-74
2021/09/27 02:00:00;;;;;;;75.70;37.30;;;;;;;13.30;99.68;101524.28;5092693;28;20024;-74
2021/09/27 02:02:34;;;;;;;74.85;37.40;;;;;;;13.32;100.00;101527.63;5091812;28;20024;-73
2021/09/27 02:05:15;;;;;;;74.57;34.72;;;;;;;13.35;100.00;101526.56;5092430;28;20028;-74
2021/09/27 02:08:33;;;;;;;72.25;35.13;;;;;;;13.42;100.00;101524.16;5092133;28;20020;-74
2021/09/27 02:11:13;;;;;;;69.00;33.80;;;;;;;13.49;100.00;101527.94;5026442;28;20111;-74
2021/09/27 02:13:46;;;;;;;87.47;38.70;;;;;;;13.55;100.00;101525.56;5092259;28;20052;-73
2021/09/27 02:16:23;;;;;;;78.22;37.55;;;;;;;13.58;100.00;101529.78;5092594;28;20036;-74
2021/09/27 02:19:01;;;;;;;70.47;35.30;;;;;;;13.55;100.00;101524.72;5092285;28;20105;-74
2021/09/27 02:21:31;;;;;;;57.53;29.75;;;;;;;13.50;100.00;101518.97;5091647;28;20032;-74
2021/09/27 02:24:35;;;;;;;75.35;37.15;;;;;;;13.45;100.00;101515.84;5096092;28;20032;-73
2021/09/27 02:27:02;;;;;;;64.82;31.42;;;;;;;13.39;100.00;101514.56;5057406;28;20040;-74
2021/09/27 02:29:29;;;;;;;59.92;31.35;;;;;;;13.33;100.00;101510.63;5095437;28;20032;-74
2021/09/27 02:32:12;;;;;;;58.10;30.63;;;;;;;13.26;99.56;101514.84;5096396;28;20036;-74
2021/09/27 02:35:02;;;;;;;56.30;29.08;;;;;;;13.20;99.66;101516.25;5095055;28;20202;-73
2021/09/27 02:37:47;;;;;;;66.18;33.75;;;;;;;13.19;99.80;101511.03;5095001;28;20032;-74
2021/09/27 02:40:35;;;;;;;71.90;34.63;;;;;;;13.16;99.90;101511.31;5095701;28;20040;-73
2021/09/27 02:43:04;;;;;;;60.97;29.42;;;;;;;13.15;99.48;101510.50;5095859;28;20055;-74
2021/09/27 02:45:30;;;;;;;87.80;36.90;;;;;;;13.14;99.77;101515.97;5095019;28;20035;-74
2021/09/27 02:48:12;;;;;;;59.95;31.88;;;;;;;13.11;100.00;101513.59;5096093;28;20114;-73
2021/09/27 02:50:40;;;;;;;74.63;33.15;;;;;;;13.10;100.00;101510.03;5095039;28;20047;-74
2021/09/27 02:53:05;;;;;;;82.43;38.58;;;;;;;13.09;100.00;101505.69;5095495;28;20035;-73
2021/09/27 02:55:40;;;;;;;87.47;39.13;;;;;;;13.08;100.00;101492.47;5094940;28;20040;-74
2021/09/27 02:58:16;;;;;;;98.00;42.42;;;;;;;13.05;100.00;101497.09;5095452;28;20047;-74
2021/09/27 03:00:49;;;;;;;91.05;38.13;;;;;;;13.03;100.00;101504.44;5094617;28;20361;-73
2021/09/27 03:03:27;;;;;;;78.68;35.67;;;;;;;13.02;100.00;101496.56;5095428;28;20111;-73
2021/09/27 03:06:18;;;;;;;73.05;33.17;;;;;;;12.98;100.00;101490.63;5095059;28;20032;-73
2021/09/27 03:09:02;;;;;;;59.17;28.40;;;;;;;12.94;99.38;101486.53;5095334;28;20040;-73
2021/09/27 03:12:16;;;;;;;90.50;38.85;;;;;;;12.94;99.83;101491.88;5094248;28;20044;-73
2021/09/27 03:14:50;;;;;;;79.40;35.33;;;;;;;12.90;99.60;101490.50;5072087;28;20051;-73
2021/09/27 03:17:49;;;;;;;88.32;39.53;;;;;;;12.87;99.70;101490.78;5095163;28;20375;-73
2021/09/27 03:20:23;;;;;;;89.90;40.08;;;;;;;12.84;99.94;101485.72;5073720;28;20043;-73
2021/09/27 03:23:22;;;;;;;82.45;35.55;;;;;;;12.81;100.00;101486.81;5094944;28;20028;-73
2021/09/27 03:26:22;;;;;;;77.57;36.15;;;;;;;12.77;100.00;101484.56;5094795;28;20063;-73
2021/09/27 03:29:00;;;;;;;78.00;35.28;;;;;;;12.76;100.00;101482.88;5076736;28;20028;-73
2021/09/27 03:31:50;;;;;;;92.05;37.22;;;;;;;12.76;100.00;101481.03;5094033;28;20108;-73
2021/09/27 03:34:39;;;;;;;88.78;40.80;;;;;;;12.83;100.00;101474.16;5094012;28;20429;-73
2021/09/27 03:37:29;;;;;;;100.13;41.20;;;;;;;12.83;100.00;101476.84;5094643;28;20032;-72
2021/09/27 03:40:03;;;;;;;79.63;34.90;;;;;;;12.79;100.00;101474.56;5094662;28;20043;-73
2021/09/27 03:42:44;;;;;;;86.95;38.13;;;;;;;12.75;100.00;101473.16;5094113;28;20040;-73
2021/09/27 03:45:18;;;;;;;73.38;33.85;;;;;;;12.72;100.00;101474.31;5094774;28;20047;-73
2021/09/27 03:48:00;;;;;;;68.88;34.83;;;;;;;12.69;100.00;101462.06;5094022;28;20024;-73
2021/09/27 03:50:43;;;;;;;99.82;40.83;;;;;;;12.73;100.00;101467.13;5093901;28;20106;-73
2021/09/27 03:53:15;;;;;;;95.10;40.50;;;;;;;12.70;100.00;101462.91;5094270;28;20400;-73
2021/09/27 03:55:48;;;;;;;110.18;43.67;;;;;;;12.72;100.00;101470.75;5093728;28;20107;-73
2021/09/27 03:58:25;;;;;;;118.00;46.15;;;;;;;12.71;100.00;101480.63;5094372;28;20117;-73
2021/09/27 04:01:12;;;;;;;107.55;43.33;;;;;;;12.69;100.00;101478.09;5094479;28;20031;-73
2021/09/27 04:03:45;;;;;;;80.75;35.22;;;;;;;12.64;100.00;101474.97;5093552;28;20456;-73
2021/09/27 04:06:32;;;;;;;122.20;45.47;;;;;;;12.62;100.00;101466.25;5094202;28;20480;-75
2021/09/27 04:09:07;;;;;;;81.22;37.58;;;;;;;12.60;100.00;101462.88;5093950;28;20384;-72
2021/09/27 04:11:47;;;;;;;112.00;42.17;;;;;;;12.59;100.00;101465.69;5075194;28;20430;-75
2021/09/27 04:14:35;;;;;;;107.45;43.17;;;;;;;12.58;100.00;101453.31;5094127;28;20048;-75
2021/09/27 04:17:18;;;;;;;115.80;43.50;;;;;;;12.57;100.00;101456.97;5093865;28;20032;-75
2021/09/27 04:19:46;;;;;;;91.95;39.08;;;;;;;12.57;100.00;101455.16;5093355;28;20468;-75
2021/09/27 04:22:30;;;;;;;95.50;40.70;;;;;;;12.56;100.00;101450.78;5093752;28;20032;-72
2021/09/27 04:25:17;;;;;;;113.85;43.67;;;;;;;12.53;100.00;101451.06;5093329;28;20480;-72
2021/09/27 04:28:01;;;;;;;101.35;42.60;;;;;;;12.51;100.00;101442.38;5092889;28;20039;-75
2021/09/27 04:30:52;;;;;;;105.40;42.42;;;;;;;12.51;100.00;101445.03;5093700;28;20035;-75
2021/09/27 04:33:39;;;;;;;116.82;44.20;;;;;;;12.49;100.00;101445.13;5093494;28;20035;-72
2021/09/27 04:36:07;;;;;;;108.72;42.65;;;;;;;12.44;100.00;101454.56;5093491;28;20165;-72
2021/09/27 04:38:33;;;;;;;124.80;45.28;;;;;;;12.38;100.00;101452.44;5092628;28;20028;-73
2021/09/27 04:41:06;;;;;;;116.25;44.00;;;;;;;12.33;100.00;101452.81;5093246;28;20047;-73
2021/09/27 04:43:35;;;;;;;123.15;45.22;;;;;;;12.37;100.00;101448.06;5092601;28;20031;-73
2021/09/27 04:46:25;;;;;;;150.43;52.67;;;;;;;12.42;100.00;101449.38;5093507;28;20077;-73
2021/09/27 04:49:00;;;;;;;148.35;53.38;;;;;;;12.48;100.00;101453.28;5092692;28;20161;-73
2021/09/27 04:51:29;;;;;;;178.05;58.08;;;;;;;12.54;100.00;101450.09;5092967;28;20028;-73
2021/09/27 04:54:09;;;;;;;152.05;52.67;;;;;;;12.57;100.00;101448.97;5092802;28;20028;-73
2021/09/27 04:57:05;;;;;;;151.90;51.67;;;;;;;12.56;100.00;101450.78;5092648;28;20048;-73
2021/09/27 04:59:59;;;;;;;138.90;50.28;;;;;;;12.56;100.00;101441.94;5093030;28;20028;-77
2021/09/27 05:02:43;;;;;;;150.40;51.13;;;;;;;12.54;100.00;101436.75;5071081;28;20127;-73
2021/09/27 05:05:21;;;;;;;151.02;52.85;;;;;;;12.53;100.00;101429.72;5093071;28;20028;-73
2021/09/27 05:07:54;;;;;;;138.25;50.45;;;;;;;12.52;100.00;101423.53;5092532;28;20036;-73
2021/09/27 05:10:34;;;;;;;167.98;55.55;;;;;;;12.52;100.00;101420.00;5092862;28;20132;-73
2021/09/27 05:13:15;;;;;;;165.27;53.70;;;;;;;12.52;100.00;101422.69;5074693;28;20396;-73
2021/09/27 05:16:06;;;;;;;175.20;57.70;;;;;;;12.52;100.00;101418.22;5091834;28;20068;-73
2021/09/27 05:19:01;;;;;;;156.57;52.15;;;;;;;12.52;100.00;101414.66;5092861;28;20036;-72
2021/09/27 05:21:54;;;;;;;150.88;50.95;;;;;;;12.52;100.00;101407.53;5089693;28;20074;-73
2021/09/27 05:24:40;;;;;;;165.90;54.90;;;;;;;12.59;100.00;101406.97;5092599;28;20081;-72
2021/09/27 05:27:43;;;;;;;158.35;52.55;;;;;;;12.63;100.00;101403.03;5092544;28;20032;-73
2021/09/27 05:30:29;;;;;;;160.70;53.80;;;;;;;12.66;100.00;101397.44;5092682;28;20464;-73
2021/09/27 05:33:10;;;;;;;160.82;55.13;;;;;;;12.69;100.00;101397.16;5092032;28;20047;-73
2021/09/27 05:36:11;;;;;;;170.38;59.15;;;;;;;12.73;100.00;101395.03;5091848;28;20020;-74
2021/09/27 05:38:50;;;;;;;175.82;57.17;;;;;;;12.76;100.00;101392.09;5092054;28;20035;-73
2021/09/27 05:41:45;;;;;;;160.63;53.58;;;;;;;12.80;100.00;101385.50;5092627;28;20032;-72
2021/09/27 05:44:45;;;;;;;170.48;56.13;;;;;;;12.84;100.00;101385.06;5092276;28;20032;-73
2021/09/27 05:47:33;;;;;;;159.00;55.05;;;;;;;12.89;100.00;101389.97;5092330;28;20103;-73
2021/09/27 05:50:17;;;;;;;165.43;55.50;;;;;;;12.95;100.00;101392.06;5091434;28;20024;-73
2021/09/27 05:53:09;;;;;;;172.13;56.72;;;;;;;13.02;100.00;101400.38;5091768;28;20032;-74
2021/09/27 05:55:52;;;;;;;156.43;54.60;;;;;;;13.07;100.00;101394.63;5092482;28;20028;-73
2021/09/27 05:58:36;;;;;;;176.85;57.25;;;;;;;13.15;100.00;101394.72;5095192;28;20043;-73
2021/09/27 06:01:23;;;;;;;162.30;54.50;;;;;;;13.21;100.00;101389.69;5096215;28;20085;-73
2021/09/27 06:04:14;;;;;;;157.73;54.47;;;;;;;13.29;100.00;101388.13;5095922;28;20039;-73
2021/09/27 06:06:53;;;;;;;159.48;55.17;;;;;;;13.34;100.00;101392.06;5095759;28;20027;-77
2021/09/27 06:09:37;;;;;;;144.73;51.17;;;;;;;13.42;100.00;101387.84;5096444;28;20063;-73
2021/09/27 06:12:25;;;;;;;139.25;50.60;;;;;;;13.47;100.00;101385.59;5095325;28;20103;-73
2021/09/27 06:14:56;;;;;;;130.35;49.60;;;;;;;13.52;100.00;101389.50;5095616;28;20036;-73
2021/09/27 06:17:32;;;;;;;119.07;46.85;;;;;;;13.56;100.00;101392.72;5095952;28;20077;-73
2021/09/27 06:20:00;;;;;;;111.80;44.95;;;;;;;13.60;100.00;101383.44;5095383;28;20032;-73
2021/09/27 06:22:46;;;;;;;111.10;43.80;;;;;;;13.64;100.00;101379.47;5096406;28;20085;-73
2021/09/27 06:25:38;;;;;;;103.45;43.97;;;;;;;13.70;100.00;101380.72;5096035;28;20027;-73
2021/09/27 06:28:22;;;;;;;94.68;39.75;;;;;;;13.77;100.00;101378.31;5095480;28;20031;-72
2021/09/27 06:31:14;;;;;;;90.05;39.00;;;;;;;13.83;100.00;101375.03;5095119;28;20056;-73
2021/09/27 06:34:05;;;;;;;76.60;35.53;;;;;;;13.88;100.00;101365.59;5081062;28;20036;-72
2021/09/27 06:36:33;;;;;;;60.15;32.38;;;;;;;13.90;100.00;101360.94;5095752;28;20039;-72
2021/09/27 06:39:06;;;;;;;56.10;30.48;;;;;;;13.93;100.00;101351.78;5095129;28;20384;-72
2021/09/27 06:41:34;;;;;;;53.97;29.58;;;;;;;13.95;100.00;101341.75;5095544;28;20028;-72
2021/09/27 06:43:59;;;;;;;47.80;27.35;;;;;;;14.00;100.00;101338.63;5094778;28;20048;-72
2021/09/27 06:46:24;;;;;;;47.80;25.80;;;;;;;14.02;100.00;101342.84;5095258;28;20392;-73
2021/09/27 06:48:50;;;;;;;47.97;26.23;;;;;;;14.08;100.00;101344.91;5094695;28;20024;-72
2021/09/27 06:51:16;;;;;;;43.88;24.70;;;;;;;14.12;100.00;101337.41;5095606;28;20495;-72
2021/09/27 06:53:43;;;;;;;41.95;22.27;;;;;;;14.18;100.00;101338.66;5095149;28;20498;-72
2021/09/27 06:56:08;;;;;;;40.35;23.52;;;;;;;14.24;100.00;101340.72;5094822;28;20020;-72
2021/09/27 06:58:33;;;;;;;35.25;21.83;;;;;;;14.26;99.81;101333.41;5095357;28;20024;-73
2021/09/27 07:00:59;;;;;;;35.47;21.27;;;;;;;14.31;99.86;101336.47;5094748;28;20036;-73
2021/09/27 07:03:24;;;;;;;36.67;21.17;;;;;;;14.36;99.26;101344.91;5077389;28;20028;-72
2021/09/27 07:05:50;;;;;;;36.03;21.42;;;;;;;14.41;99.21;101347.94;5094768;28;20036;-73
2021/09/27 07:08:18;;;;;;;36.88;20.63;;;;;;;14.49;98.74;101335.63;5094980;28;20069;-73
2021/09/27 07:10:44;;;;;;;31.52;19.58;;;;;;;14.57;98.74;101341.06;5076274;28;20493;-73
2021/09/27 07:13:11;;;;;;;33.33;18.83;;;;;;;14.67;98.28;101349.88;5059272;28;20062;-72
2021/09/27 07:15:38;;;;;;;32.00;19.20;;;;;;;14.77;97.57;101349.81;5094534;28;20040;-74
2021/09/27 07:18:03;;;;;;;27.52;17.90;;;;;;;14.90;97.90;101338.69;5094041;28;20024;-73
2021/09/27 07:20:29;;;;;;;28.02;18.05;;;;;;;14.97;96.62;101339.75;5095089;28;20513;-72
2021/09/27 07:22:57;;;;;;;29.83;18.45;;;;;;;15.06;95.94;101346.88;5090474;28;20028;-71
2021/09/27 07:25:23;;;;;;;26.83;18.95;;;;;;;15.15;95.65;101362.03;5092166;28;20032;-73
2021/09/27 07:27:49;;;;;;;33.92;19.85;;;;;;;15.21;94.54;101363.25;5092302;28;20493;-74
2021/09/27 07:30:15;;;;;;;25.92;18.85;;;;;;;15.24;94.34;101360.25;5091712;28;20120;-74
2021/09/27 07:32:42;;;;;;;31.20;20.27;;;;;;;15.31;94.88;101339.81;5091931;28;20050;-75
2021/09/27 07:35:10;;;;;;;30.60;20.77;;;;;;;15.34;94.06;101338.69;5091078;28;20036;-74
2021/09/27 07:37:38;;;;;;;34.90;22.38;;;;;;;15.39;93.93;101340.88;5091912;28;20413;-73
2021/09/27 07:40:05;;;;;;;35.17;22.40;;;;;;;15.45;93.49;101337.56;5091587;28;20054;-71
2021/09/27 07:42:31;;;;;;;33.88;22.67;;;;;;;15.48;93.65;101331.88;5091769;28;20123;-72
2021/09/27 07:44:56;;;;;;;31.92;23.73;;;;;;;15.47;93.41;101327.53;5090886;28;20147;-72
2021/09/27 07:47:21;;;;;;;35.80;23.73;;;;;;;15.47;93.36;101317.63;5091387;28;20400;-73
2021/09/27 07:49:47;;;;;;;35.70;24.52;;;;;;;15.49;93.30;101320.16;5091610;28;20032;-72
2021/09/27 07:52:12;;;;;;;36.00;26.48;;;;;;;15.49;93.21;101326.34;5090843;28;20085;-71
2021/09/27 07:54:39;;;;;;;36.90;25.50;;;;;;;15.56;92.82;101318.53;5091601;28;20067;-72
2021/09/27 07:57:05;;;;;;;37.38;26.67;;;;;;;15.60;93.16;101313.66;5090617;28;20036;-72
2021/09/27 07:59:30;;;;;;;36.33;25.42;;;;;;;15.66;92.84;101313.06;5090840;28;20028;-72
2021/09/27 08:01:55;;;;;;;43.17;27.67;;;;;;;15.70;92.95;101322.44;5090687;28;20040;-72
2021/09/27 08:04:21;;;;;;;39.50;26.85;;;;;;;15.70;92.35;101333.16;5091521;28;20068;-72
2021/09/27 08:06:47;;;;;;;38.10;26.70;;;;;;;15.64;92.23;101323.91;5091012;28;20488;-72
2021/09/27 08:09:12;;;;;;;45.17;27.58;;;;;;;15.63;92.97;101324.94;5090524;28;20035;-73
2021/09/27 08:11:40;;;;;;;41.55;28.75;;;;;;;15.67;92.46;101315.56;5072722;28;20126;-72
2021/09/27 08:14:06;;;;;;;38.45;27.85;;;;;;;15.75;92.35;101295.13;5089994;28;20130;-74
2021/09/27 08:16:32;;;;;;;43.30;28.70;;;;;;;15.84;92.21;101288.84;5072862;28;20127;-73
2021/09/27 08:18:57;;;;;;;43.97;28.17;;;;;;;15.97;91.48;101294.59;5089931;28;20469;-73
2021/09/27 08:21:23;;;;;;;39.63;28.63;;;;;;;16.14;91.06;101281.19;5090419;28;20039;-72
2021/09/27 08:23:48;;;;;;;41.55;27.42;;;;;;;16.32;90.09;101283.75;5090633;28;20051;-72
2021/09/27 08:26:14;;;;;;;37.88;27.38;;;;;;;16.53;89.79;101281.41;5090141;28;20032;-73
2021/09/27 08:28:41;;;;;;;35.13;26.10;;;;;;;16.66;88.33;101275.53;5091097;28;20032;-73
2021/09/27 08:31:11;;;;;;;37.58;26.88;;;;;;;16.80;88.20;101275.84;5090094;28;20032;-76
2021/09/27 08:33:38;;;;;;;34.70;25.75;;;;;;;16.81;87.56;101269.44;5072462;28;20384;-75
2021/09/27 08:36:07;;;;;;;38.13;26.60;;;;;;;16.81;87.38;101281.06;5089747;28;20061;-75
2021/09/27 08:38:37;;;;;;;35.55;26.58;;;;;;;16.74;87.36;101270.13;5090769;28;20032;-74
2021/09/27 08:41:21;;;;;;;34.08;26.38;;;;;;;16.78;87.39;101272.47;5072325;28;20067;-75
2021/09/27 08:43:57;;;;;;;34.55;25.20;;;;;;;16.88;86.95;101267.81;5089069;28;20075;-74
2021/09/27 08:46:26;;;;;;;39.20;24.20;;;;;;;16.99;86.40;101258.53;5076382;28;20032;-75
2021/09/27 08:49:01;;;;;;;30.63;23.80;;;;;;;17.14;85.81;101270.28;5092621;28;20028;-74
2021/09/27 08:51:28;;;;;;;33.00;23.60;;;;;;;17.33;85.28;101254.75;5092605;28;20057;-74
2021/09/27 08:53:54;;;;;;;30.50;21.30;;;;;;;17.46;84.05;101252.34;5092702;28;20094;-75
2021/09/27 08:56:42;;;;;;;29.20;20.25;;;;;;;17.45;83.67;101259.59;5092315;28;20062;-73
2021/09/27 08:59:35;;;;;;;30.05;20.35;;;;;;;17.48;83.26;101257.56;5092306;28;20035;-76
2021/09/27 09:02:31;;;;;;;27.60;19.38;;;;;;;17.40;83.01;101261.94;5092876;28;20123;-75
2021/09/27 09:05:10;;;;;;;26.55;18.58;;;;;;;17.28;83.36;101266.88;5092124;28;20044;-77
2021/09/27 09:07:47;;;;;;;24.95;17.55;;;;;;;17.25;83.84;101259.16;5093095;28;20490;-76
2021/09/27 09:10:18;;;;;;;24.60;17.73;;;;;;;17.20;84.04;101256.16;5092420;28;20093;-75
2021/09/27 09:13:00;;;;;;;24.58;18.00;;;;;;;17.16;83.91;101249.44;5074661;28;20055;-74
2021/09/27 09:15:29;;;;;;;23.80;15.93;;;;;;;17.15;83.72;101246.91;5092290;28;20055;-74
2021/09/27 09:18:03;;;;;;;20.17;15.73;;;;;;;17.17;84.00;101244.91;5092817;28;20028;-77
2021/09/27 09:21:09;;;;;;;21.98;16.10;;;;;;;17.19;83.98;101238.31;5092688;28;20078;-78
2021/09/27 09:23:38;;;;;;;17.50;14.15;;;;;;;17.26;83.36;101238.50;5093215;28;20040;-74
2021/09/27 09:26:07;;;;;;;16.58;13.55;;;;;;;17.34;82.78;101240.31;5092712;28;20036;-77
2021/09/27 09:28:34;;;;;;;16.95;13.18;;;;;;;17.47;82.05;101235.22;5092320;28;20028;-75
2021/09/27 09:31:19;;;;;;;21.30;12.70;;;;;;;17.56;81.69;101231.47;5092606;28;20032;-76
2021/09/27 09:33:52;;;;;;;12.88;10.43;;;;;;;17.67;80.48;101238.28;5092547;28;20028;-77
2021/09/27 09:36:39;;;;;;;17.48;12.73;;;;;;;17.75;80.36;101237.41;5092301;28;20407;-74
2021/09/27 09:39:17;;;;;;;14.32;9.30;;;;;;;17.77;79.83;101238.91;5092480;28;20032;-74
2021/09/27 09:41:42;;;;;;;16.33;9.52;;;;;;;17.80;79.10;101240.44;5092206;28;20032;-74
2021/09/27 09:44:24;;;;;;;12.45;9.00;;;;;;;17.70;79.62;101232.56;5092137;28;20081;-74
2021/09/27 09:47:09;;;;;;;15.05;9.10;;;;;;;17.65;80.29;101236.81;5092059;28;20070;-73
2021/09/27 09:49:59;;;;;;;13.85;8.93;;;;;;;17.57;80.28;101229.59;5092585;28;20024;-74
2021/09/27 09:52:35;;;;;;;16.52;8.88;;;;;;;17.56;80.05;101242.22;5091840;28;20028;-73
2021/09/27 09:55:15;;;;;;;18.63;8.63;;;;;;;17.55;80.06;101229.78;5092392;28;20024;-73
2021/09/27 09:57:45;;;;;;;12.88;8.60;;;;;;;17.57;80.72;101221.53;5092624;28;20024;-74
2021/09/27 10:00:35;;;;;;;11.82;8.30;;;;;;;17.66;81.04;101227.72;5091186;28;20028;-74
2021/09/27 10:03:02;;;;;;;11.32;6.68;;;;;;;17.83;79.57;101228.47;5092433;28;20032;-73
2021/09/27 10:05:40;;;;;;;12.90;7.18;;;;;;;18.01;78.48;101228.22;5091689;28;20058;-73
2021/09/27 10:08:13;;;;;;;13.23;6.35;;;;;;;18.21;77.63;101221.31;5092397;28;20457;-73
2021/09/27 10:10:43;;;;;;;10.52;5.32;;;;;;;18.48;76.52;101230.72;5092433;28;20035;-74
2021/09/27 10:13:29;;;;;;;6.15;4.75;;;;;;;18.65;74.91;101226.00;5092320;28;20092;-74
2021/09/27 10:15:55;;;;;;;15.93;3.97;;;;;;;18.78;74.22;101225.38;5092240;28;20074;-74
2021/09/27 10:18:25;;;;;;;5.53;4.10;;;;;;;18.81;73.03;101222.31;5091886;28;20036;-74
2021/09/27 10:21:03;;;;;;;11.15;3.85;;;;;;;18.83;71.36;101214.06;5092189;28;20028;-72
2021/09/27 10:23:35;;;;;;;7.95;3.75;;;;;;;18.85;71.98;101204.78;5091374;28;20036;-74
2021/09/27 10:26:34;;;;;;;11.43;3.10;;;;;;;18.82;71.61;101210.53;5092249;28;20051;-74
2021/09/27 10:29:15;;;;;;;8.77;3.20;;;;;;;18.86;71.65;101213.72;5063242;28;20040;-73
2021/09/27 10:31:48;;;;;;;8.77;3.88;;;;;;;18.84;70.58;101205.78;5092079;28;20028;-75
2021/09/27 10:34:18;;;;;;;11.10;3.13;;;;;;;19.01;70.67;101206.47;5091188;28;20134;-74
2021/09/27 10:36:47;;;;;;;5.40;3.30;;;;;;;19.10;70.04;101190.19;5091866;28;20024;-74
2021/09/27 10:39:16;;;;;;;10.20;3.63;;;;;;;19.24;69.48;101194.72;5092052;28;20054;-74
2021/09/27 10:41:58;;;;;;;5.22;3.20;;;;;;;19.46;68.43;101192.94;5091635;28;20065;-74
2021/09/27 10:44:41;;;;;;;6.82;3.13;;;;;;;20.05;68.33;101193.81;5094111;28;20031;-74
2021/09/27 10:47:10;;;;;;;8.35;2.90;;;;;;;20.81;65.08;101184.22;5095928;28;20038;-74
2021/09/27 10:49:43;;;;;;;11.88;2.90;;;;;;;21.28;63.59;101194.25;5096034;28;20438;-75
2021/09/27 10:52:40;;;;;;;8.20;2.65;;;;;;;21.48;61.35;101199.78;5095819;28;20028;-75
2021/09/27 10:55:26;;;;;;;5.78;2.72;;;;;;;21.16;62.71;101197.75;5048745;28;20063;-74
2021/09/27 10:58:01;;;;;;;10.18;2.60;;;;;;;20.77;62.58;101189.22;5092586;28;20058;-73
2021/09/27 11:00:50;;;;;;;8.88;2.70;;;;;;;20.67;63.74;101178.72;5091917;28;20036;-74
2021/09/27 11:03:24;;;;;;;3.70;2.30;;;;;;;20.52;64.04;101173.41;5092602;28;20032;-75
2021/09/27 11:05:50;;;;;;;8.82;2.70;;;;;;;20.53;64.11;101171.56;5092591;28;20032;-77
2021/09/27 11:08:31;;;;;;;7.85;2.55;;;;;;;20.59;63.53;101160.78;5092417;28;20156;-75
2021/09/27 11:10:57;;;;;;;10.02;2.42;;;;;;;20.61;63.50;101160.56;5092212;28;20078;-74
2021/09/27 11:13:43;;;;;;;5.40;2.50;;;;;;;20.63;63.39;101163.09;5091051;28;20056;-75
2021/09/27 11:16:18;;;;;;;8.70;2.35;;;;;;;20.88;62.44;101152.66;5074158;28;20028;-76
2021/09/27 11:19:31;;;;;;;6.38;2.72;;;;;;;21.17;62.14;101159.69;5094626;28;20036;-75
2021/09/27 11:22:17;;;;;;;9.88;2.80;;;;;;;21.33;61.00;101172.00;5058348;28;20446;-75
2021/09/27 11:24:43;;;;;;;4.90;2.33;;;;;;;21.30;60.94;101170.56;5094150;28;20043;-74
2021/09/27 11:27:15;;;;;;;7.32;2.35;;;;;;;21.07;62.14;101178.16;5094838;28;20036;-77
2021/09/27 11:29:46;;;;;;;7.18;2.65;;;;;;;20.83;62.49;101174.06;5094248;28;20035;-74
2021/09/27 11:32:28;;;;;;;8.20;2.30;;;;;;;20.58;63.34;101139.34;5094883;28;20056;-76
2021/09/27 11:34:58;;;;;;;7.53;2.50;;;;;;;20.25;62.90;101165.09;5094573;28;20028;-76
2021/09/27 11:37:32;;;;;;;5.63;2.20;;;;;;;19.98;66.78;101163.19;5094219;28;20105;-76
2021/09/27 11:40:00;;;;;;;9.38;2.50;;;;;;;19.54;67.50;101178.47;5094458;28;20024;-74
2021/09/27 11:42:52;;;;;;;9.13;3.03;;;;;;;18.94;71.39;101188.50;5093643;28;20546;-73
2021/09/27 11:45:33;;;;;;;7.05;3.17;;;;;;;18.48;73.04;101187.63;5080962;28;20032;-74
2021/09/27 11:48:02;;;;;;;;;;;;;;;18.16;74.32;101180.66;5094946;28;20050;-73
2021/09/27 11:50:29;;;;;;;7.53;3.53;;;;;;;18.02;77.57;101184.97;5093480;28;19915;-74